createdAt,value
2018-11-14T00:00:05.273Z,8.3
2018-11-14T00:05:05.447Z,8.3
2018-11-14T00:10:05.803Z,8.3
2018-11-14T00:15:07.601Z,8.2
2018-11-14T00:20:05.458Z,8.3
2018-11-14T00:25:10.903Z,8.2
2018-11-14T00:30:05.758Z,8.2
2018-11-14T00:35:02.917Z,8.2
2018-11-14T00:40:10.266Z,8.1
2018-11-14T00:45:07.781Z,8.1
2018-11-14T00:50:25.726Z,8
2018-11-14T00:55:05.417Z,8
2018-11-14T01:00:02.686Z,8
2018-11-14T01:05:02.868Z,8
2018-11-14T01:10:02.644Z,7.9
2018-11-14T01:15:07.913Z,7.9
2018-11-14T01:20:03.237Z,7.8
2018-11-14T01:25:17.558Z,7.8
2018-11-14T01:30:20.586Z,7.8
2018-11-14T01:35:38.548Z,7.7
2018-11-14T01:40:20.969Z,7.7
2018-11-14T01:50:05.191Z,7.7
2018-11-14T01:55:02.856Z,7.7
2018-11-14T02:00:20.751Z,7.6
2018-11-14T02:05:21.050Z,7.5
2018-11-14T02:15:10.371Z,7.4
2018-11-14T02:20:02.630Z,7.4
2018-11-14T02:25:18.080Z,7.3
2018-11-14T02:30:15.897Z,7.3
2018-11-14T02:35:15.089Z,7.2
2018-11-14T02:40:03.169Z,7.3
2018-11-14T02:45:02.388Z,7.3
2018-11-14T02:50:05.164Z,7.2
2018-11-14T02:55:02.899Z,7.2
2018-11-14T03:00:23.409Z,7.1
2018-11-14T03:05:09.964Z,7.1
2018-11-14T03:10:07.672Z,7
2018-11-14T03:15:05.694Z,7
2018-11-14T03:20:10.628Z,7
2018-11-14T03:25:08.233Z,7
2018-11-14T03:30:04.944Z,7.1
2018-11-14T03:35:02.548Z,7
2018-11-14T03:40:15.888Z,7
2018-11-14T03:45:04.904Z,6.9
2018-11-14T03:50:05.664Z,6.9
2018-11-14T03:55:09.914Z,6.9
2018-11-14T04:00:05.813Z,6.9
2018-11-14T04:05:20.297Z,6.9
2018-11-14T04:10:10.593Z,6.7
2018-11-14T04:15:20.022Z,6.7
2018-11-14T04:20:05.879Z,6.7
2018-11-14T04:25:27.864Z,6.7
2018-11-14T04:30:05.562Z,6.7
2018-11-14T04:35:03.295Z,6.7
2018-11-14T04:40:13.069Z,6.6
2018-11-14T04:45:15.753Z,6.6
2018-11-14T04:50:08.285Z,6.6
2018-11-14T04:55:07.492Z,6.5
2018-11-14T05:00:05.242Z,6.5
2018-11-14T05:05:15.597Z,6.5
2018-11-14T05:10:10.801Z,6.4
2018-11-14T05:15:10.070Z,6.4
2018-11-14T05:20:09.965Z,6.4
2018-11-14T05:25:25.428Z,6.4
2018-11-14T05:30:05.174Z,6.4
2018-11-14T05:35:05.322Z,6.3
2018-11-14T05:40:08.183Z,6.3
2018-11-14T05:45:05.165Z,6.3
2018-11-14T05:50:25.168Z,6.2
2018-11-14T05:55:02.361Z,6.3
2018-11-14T06:00:07.980Z,6.3
2018-11-14T06:05:18.275Z,6.3
2018-11-14T06:10:02.957Z,6.2
2018-11-14T06:15:05.637Z,6.3
2018-11-14T06:20:02.986Z,6.3
2018-11-14T06:25:10.846Z,6.3
2018-11-14T06:30:23.251Z,6.3
2018-11-14T06:40:10.477Z,6.4
2018-11-14T06:45:15.687Z,6.4
2018-11-14T06:50:05.541Z,6.5
2018-11-14T06:55:08.183Z,6.5
2018-11-14T07:00:04.956Z,6.6
2018-11-14T07:05:02.809Z,6.5
2018-11-14T07:10:08.101Z,6.7
2018-11-14T07:15:23.486Z,6.8
2018-11-14T07:20:17.930Z,6.8
2018-11-14T07:25:02.998Z,6.8
2018-11-14T07:30:15.880Z,6.9
2018-11-14T07:35:02.714Z,6.9
2018-11-14T07:40:10.007Z,7
2018-11-14T07:45:07.596Z,7.1
2018-11-14T07:50:25.567Z,7.2
2018-11-14T07:55:05.295Z,7.3
2018-11-14T08:05:23.203Z,7.3
2018-11-14T08:10:18.217Z,7.4
2018-11-14T08:15:03.242Z,7.4
2018-11-14T08:20:07.659Z,7.4
2018-11-14T08:25:05.521Z,7.5
2018-11-14T08:30:02.871Z,7.5
2018-11-14T08:35:20.711Z,7.6
2018-11-14T08:40:05.915Z,7.7
2018-11-14T08:45:10.114Z,7.9
2018-11-14T08:50:08.391Z,8
2018-11-14T08:55:38.213Z,8.1
2018-11-14T09:00:07.435Z,8.2
2018-11-14T09:10:05.105Z,8.4
2018-11-14T09:15:08.353Z,8.4
2018-11-14T09:20:25.871Z,8.4
2018-11-14T09:25:03.122Z,8.5
2018-11-14T09:30:25.340Z,8.7
2018-11-14T09:35:10.071Z,8.8
2018-11-14T09:40:10.370Z,9
2018-11-14T09:45:23.302Z,9.2
2018-11-14T09:50:02.486Z,9.2
2018-11-14T09:55:35.559Z,9.5
2018-11-14T10:00:15.361Z,9.5
2018-11-14T10:05:18.136Z,9.5
2018-11-14T10:10:15.490Z,3.2
2018-11-14T10:15:15.895Z,9.6
2018-11-14T10:20:28.603Z,9.7
2018-11-14T10:25:25.591Z,9.8
2018-11-14T10:30:02.811Z,9.8
2018-11-14T10:40:05.298Z,10
2018-11-14T10:45:02.905Z,10
2018-11-14T10:50:10.654Z,10.3
2018-11-14T10:55:20.094Z,10.5
2018-11-14T11:00:05.017Z,10.6
2018-11-14T11:05:02.780Z,10.6
2018-11-14T11:10:02.602Z,10.8
2018-11-14T11:15:07.813Z,11.2
2018-11-14T11:20:25.806Z,11.1
2018-11-14T11:25:38.307Z,11.1
2018-11-14T11:30:30.228Z,11.1
2018-11-14T11:35:15.061Z,11.1
2018-11-14T11:40:05.527Z,11.2
2018-11-14T11:55:04.979Z,11.3
2018-11-14T12:00:03.241Z,11.3
2018-11-14T12:05:18.146Z,11.2
2018-11-14T12:10:10.883Z,11.3
2018-11-14T12:15:10.000Z,11.2
2018-11-14T12:20:08.295Z,11.2
2018-11-14T12:25:02.346Z,11.2
2018-11-14T12:30:02.561Z,11.2
2018-11-14T12:35:10.515Z,11.2
2018-11-14T12:45:02.547Z,11.1
2018-11-14T12:50:02.895Z,11.2
2018-11-14T12:55:15.744Z,11.3
2018-11-14T13:00:15.499Z,11.4
2018-11-14T13:05:08.075Z,11.4
2018-11-14T13:10:10.295Z,11.4
2018-11-14T13:15:15.471Z,11.4
2018-11-14T13:20:05.230Z,11.6
2018-11-14T13:25:23.099Z,11.7
2018-11-14T13:30:10.819Z,11.8
2018-11-14T13:35:05.001Z,11.8
2018-11-14T13:40:22.967Z,11.9
2018-11-14T13:45:05.512Z,12
2018-11-14T13:50:05.340Z,12.1
2018-11-14T13:55:09.979Z,12.1
2018-11-14T14:05:08.277Z,12.1
2018-11-14T14:10:25.602Z,12
2018-11-14T14:15:30.579Z,11.9
2018-11-14T14:20:18.059Z,11.9
2018-11-14T14:25:10.014Z,11.8
2018-11-14T14:30:25.948Z,11.7
2018-11-14T14:35:15.722Z,11.6
2018-11-14T14:40:05.872Z,11.5
2018-11-14T14:45:10.014Z,11.3
2018-11-14T14:50:20.868Z,11.1
2018-11-14T14:55:12.450Z,11
2018-11-14T15:00:15.375Z,10.8
2018-11-14T15:05:07.924Z,10.6
2018-11-14T15:10:30.340Z,10.5
2018-11-14T15:15:17.705Z,10.3
2018-11-14T15:20:02.996Z,10.3
2018-11-14T15:25:23.407Z,10
2018-11-14T15:35:33.134Z,9.7
2018-11-14T15:40:28.004Z,9.6
2018-11-14T15:45:28.403Z,9.4
2018-11-14T15:50:02.565Z,9.4
2018-11-14T15:55:20.391Z,9.1
2018-11-14T16:00:05.015Z,9.1
2018-11-14T16:05:12.783Z,9
2018-11-14T16:10:12.482Z,8.8
2018-11-14T16:15:25.370Z,8.7
2018-11-14T16:20:17.739Z,8.6
2018-11-14T16:25:33.122Z,8.5
2018-11-14T16:30:05.781Z,8.4
2018-11-14T16:40:05.740Z,8.2
2018-11-14T16:45:05.002Z,8.1
2018-11-14T16:50:03.117Z,8.1
2018-11-14T16:55:05.836Z,8
2018-11-14T17:00:20.738Z,8.1
2018-11-14T17:05:08.187Z,8.2
2018-11-14T17:10:23.034Z,8.3
2018-11-14T17:15:08.163Z,8.3
2018-11-14T17:20:09.964Z,8.3
2018-11-14T17:25:17.752Z,8.2
2018-11-14T17:30:08.467Z,8.2
2018-11-14T17:35:02.444Z,8.2
2018-11-14T17:40:08.117Z,8
2018-11-14T17:45:30.250Z,8
2018-11-14T17:50:02.400Z,8
2018-11-14T17:55:02.856Z,7.9
2018-11-14T18:00:28.269Z,7.7
2018-11-14T18:05:37.775Z,7.6
2018-11-14T18:10:03.264Z,7.6
2018-11-14T18:15:20.107Z,7.6
2018-11-14T18:20:03.339Z,7.6
2018-11-14T18:25:20.215Z,7.6
2018-11-14T18:35:10.058Z,7.5
2018-11-14T18:40:20.508Z,7.4
2018-11-14T18:45:10.568Z,7.4
2018-11-14T18:50:23.057Z,7.4
2018-11-14T18:55:03.018Z,7.4
2018-11-14T19:05:03.280Z,7.3
2018-11-14T19:10:05.458Z,0.9
2018-11-14T19:15:15.810Z,7.2
2018-11-14T19:20:03.098Z,7.2
2018-11-14T19:25:10.027Z,7.3
2018-11-14T19:30:10.825Z,7.3
2018-11-14T19:35:05.369Z,7.2
2018-11-14T19:40:38.463Z,7.2
2018-11-14T19:45:07.713Z,7.2
2018-11-14T19:50:02.947Z,7.2
2018-11-14T19:55:05.801Z,7.2
2018-11-14T20:00:05.495Z,7.2
2018-11-14T20:05:23.432Z,7.1
2018-11-14T20:10:08.142Z,7
2018-11-14T20:15:10.215Z,7
2018-11-14T20:20:02.533Z,7
2018-11-14T20:25:15.266Z,6.9
2018-11-14T20:35:02.913Z,6.9
2018-11-14T20:40:05.078Z,6.9
2018-11-14T20:45:02.680Z,6.9
2018-11-14T20:50:10.494Z,6.9
2018-11-14T20:55:15.810Z,6.9
2018-11-14T21:00:08.309Z,6.8
2018-11-14T21:05:38.621Z,6.7
2018-11-14T21:10:20.041Z,6.7
2018-11-14T21:15:17.917Z,6.6
2018-11-14T21:20:15.135Z,6.6
2018-11-14T21:25:05.316Z,6.6
2018-11-14T21:30:02.617Z,6.5
2018-11-14T21:40:05.116Z,6.5
2018-11-14T21:45:12.843Z,6.5
2018-11-14T21:50:05.589Z,6.4
2018-11-14T21:55:05.848Z,6.4
2018-11-14T22:05:05.134Z,6.2
2018-11-14T22:10:07.873Z,6.2
2018-11-14T22:20:05.776Z,6.1
2018-11-14T22:25:17.807Z,6.1
2018-11-14T22:30:05.498Z,6.1
2018-11-14T22:35:23.484Z,6
2018-11-14T22:40:10.921Z,5.9
2018-11-14T22:45:02.589Z,5.9
2018-11-14T22:50:10.383Z,5.8
2018-11-14T22:55:03.078Z,5.8
2018-11-14T23:00:08.371Z,5.7
2018-11-14T23:05:12.681Z,5.7
2018-11-14T23:10:08.377Z,5.7
2018-11-14T23:15:07.621Z,5.6
2018-11-14T23:20:05.411Z,5.5
2018-11-14T23:25:15.764Z,5.5
2018-11-14T23:30:18.155Z,5.5
2018-11-14T23:35:08.346Z,5.5
2018-11-14T23:40:05.605Z,5.5
2018-11-14T23:45:23.479Z,5.5
2018-11-14T23:50:02.671Z,5.5
2018-11-14T23:55:05.406Z,5.4
